createdAt,value
2023-04-13T00:01:34.085Z,1.23
2023-04-13T00:04:06.309Z,1.23
2023-04-13T00:06:40.013Z,0.90
2023-04-13T00:09:11.046Z,1.05
2023-04-13T00:11:40.868Z,1.10
2023-04-13T00:14:11.251Z,1.10
2023-04-13T00:16:41.515Z,0.85
2023-04-13T00:19:13.078Z,1.10
2023-04-13T00:21:43.196Z,1.00
2023-04-13T00:24:13.536Z,1.00
2023-04-13T00:26:42.994Z,1.00
2023-04-13T00:29:13.993Z,1.13
2023-04-13T00:31:54.902Z,1.23
2023-04-13T00:34:30.155Z,1.10
2023-04-13T00:37:04.129Z,0.98
2023-04-13T00:39:34.239Z,1.10
2023-04-13T00:42:08.522Z,0.88
2023-04-13T00:44:39.501Z,0.90
2023-04-13T00:47:09.922Z,0.90
2023-04-13T00:49:41.887Z,0.70
2023-04-13T00:52:14.734Z,0.90
2023-04-13T00:54:45.271Z,0.90
2023-04-13T00:57:16.333Z,0.90
2023-04-13T00:59:50.008Z,1.17
2023-04-13T01:02:19.784Z,0.95
2023-04-13T01:04:51.343Z,0.82
2023-04-13T01:07:28.674Z,1.00
2023-04-13T01:10:05.968Z,1.05
2023-04-13T01:12:42.428Z,1.00
2023-04-13T01:15:15.078Z,0.90
2023-04-13T01:17:52.860Z,0.90
2023-04-13T01:20:31.122Z,1.00
2023-04-13T01:23:04.739Z,0.80
2023-04-13T01:25:42.434Z,0.90
2023-04-13T01:28:17.985Z,0.93
2023-04-13T01:30:49.405Z,0.93
2023-04-13T01:33:18.662Z,0.80
2023-04-13T01:35:47.607Z,0.80
2023-04-13T01:38:25.654Z,0.93
2023-04-13T01:40:57.438Z,0.85
2023-04-13T01:43:32.636Z,0.90
2023-04-13T01:46:11.974Z,0.90
2023-04-13T01:48:56.301Z,0.82
2023-04-13T01:51:38.151Z,0.90
2023-04-13T01:54:14.782Z,1.00
2023-04-13T01:56:49.030Z,0.80
2023-04-13T01:59:22.981Z,0.80
2023-04-13T02:01:59.251Z,0.80
2023-04-13T02:04:30.083Z,1.02
2023-04-13T02:07:02.016Z,1.00
2023-04-13T02:09:40.339Z,1.05
2023-04-13T02:12:09.645Z,0.80
2023-04-13T02:14:46.525Z,0.80
2023-04-13T02:17:16.668Z,0.98
2023-04-13T02:19:47.638Z,0.90
2023-04-13T02:22:16.799Z,0.90
2023-04-13T02:24:47.081Z,0.85
2023-04-13T02:27:18.082Z,0.80
2023-04-13T02:29:53.537Z,1.00
2023-04-13T02:32:22.264Z,0.80
2023-04-13T02:34:51.735Z,0.90
2023-04-13T02:37:20.946Z,0.88
2023-04-13T02:39:58.124Z,0.90
2023-04-13T02:42:28.084Z,0.90
2023-04-13T02:44:59.773Z,0.88
2023-04-13T02:50:02.852Z,0.80
2023-04-13T02:52:50.358Z,0.88
2023-04-13T02:55:23.303Z,0.73
2023-04-13T02:58:13.855Z,0.90
2023-04-13T03:00:50.878Z,0.90
2023-04-13T03:03:23.812Z,0.70
2023-04-13T03:05:53.231Z,1.10
2023-04-13T03:08:27.331Z,0.90
2023-04-13T03:11:17.320Z,0.93
2023-04-13T03:13:59.035Z,0.90
2023-04-13T03:16:40.063Z,0.90
2023-04-13T03:19:12.007Z,0.88
2023-04-13T03:21:46.361Z,0.85
2023-04-13T03:24:20.997Z,0.90
2023-04-13T03:26:54.176Z,0.70
2023-04-13T03:29:32.968Z,0.90
2023-04-13T03:32:03.057Z,0.70
2023-04-13T03:34:48.528Z,0.90
2023-04-13T03:37:18.956Z,0.90
2023-04-13T03:39:51.891Z,1.00
2023-04-13T03:42:25.651Z,0.90
2023-04-13T03:45:03.435Z,0.90
2023-04-13T03:47:35.781Z,1.27
2023-04-13T03:50:09.332Z,0.90
2023-04-13T03:52:43.302Z,0.98
2023-04-13T03:55:16.407Z,0.80
2023-04-13T03:57:51.030Z,0.80
2023-04-13T04:00:26.773Z,0.80
2023-04-13T04:03:11.472Z,1.00
2023-04-13T04:05:52.806Z,1.00
2023-04-13T04:08:23.092Z,0.90
2023-04-13T04:10:55.969Z,0.95
2023-04-13T04:13:26.293Z,0.80
2023-04-13T04:16:00.434Z,0.70
2023-04-13T04:18:34.328Z,0.80
2023-04-13T04:21:16.900Z,0.80
2023-04-13T04:24:00.788Z,0.90
2023-04-13T04:26:32.270Z,0.85
2023-04-13T04:29:03.353Z,0.80
2023-04-13T04:31:37.413Z,0.80
2023-04-13T04:34:12.246Z,0.90
2023-04-13T04:36:53.091Z,0.90
2023-04-13T04:39:24.061Z,0.80
2023-04-13T04:42:06.176Z,0.90
2023-04-13T04:44:37.461Z,0.90
2023-04-13T04:47:09.816Z,0.90
2023-04-13T04:49:58.070Z,0.85
2023-04-13T04:52:27.205Z,0.80
2023-04-13T04:54:59.736Z,0.90
2023-04-13T04:57:31.233Z,0.80
2023-04-13T05:00:00.236Z,0.90
2023-04-13T05:02:31.717Z,0.90
2023-04-13T05:05:03.944Z,0.80
2023-04-13T05:07:33.586Z,0.90
2023-04-13T05:10:07.311Z,0.90
2023-04-13T05:12:40.768Z,1.00
2023-04-13T05:15:18.765Z,0.90
2023-04-13T05:17:51.453Z,0.80
2023-04-13T05:20:22.856Z,1.08
2023-04-13T05:23:05.093Z,0.90
2023-04-13T05:25:39.744Z,1.00
2023-04-13T05:28:16.239Z,1.20
2023-04-13T05:30:53.688Z,1.30
2023-04-13T05:33:24.174Z,1.00
2023-04-13T05:35:59.537Z,1.00
2023-04-13T05:38:29.352Z,1.58
2023-04-13T05:40:59.690Z,1.20
2023-04-13T05:43:29.381Z,1.10
2023-04-13T05:45:58.929Z,1.20
2023-04-13T05:48:28.136Z,1.20
2023-04-13T05:51:06.924Z,1.02
2023-04-13T05:53:42.151Z,1.25
2023-04-13T05:56:15.592Z,1.38
2023-04-13T05:58:48.926Z,1.20
2023-04-13T06:01:23.342Z,1.95
2023-04-13T06:03:54.060Z,2.60
2023-04-13T06:06:30.583Z,1.65
2023-04-13T06:09:01.240Z,1.38
2023-04-13T06:11:30.811Z,1.40
2023-04-13T06:14:04.315Z,1.20
2023-04-13T06:16:33.832Z,1.30
2023-04-13T06:19:03.818Z,1.30
2023-04-13T06:21:36.934Z,1.30
2023-04-13T06:24:07.582Z,1.13
2023-04-13T06:26:41.744Z,1.50
2023-04-13T06:29:10.743Z,1.30
2023-04-13T06:31:56.316Z,1.20
2023-04-13T06:34:26.741Z,1.30
2023-04-13T06:36:59.455Z,1.60
2023-04-13T06:39:32.924Z,1.42
2023-04-13T06:42:02.829Z,1.30
2023-04-13T06:44:50.640Z,1.30
2023-04-13T06:47:26.378Z,1.30
2023-04-13T06:49:58.109Z,1.40
2023-04-13T06:52:29.505Z,1.50
2023-04-13T06:54:59.041Z,1.60
2023-04-13T06:57:37.918Z,1.40
2023-04-13T07:00:22.181Z,1.37
2023-04-13T07:02:59.340Z,1.40
2023-04-13T07:05:29.093Z,1.20
2023-04-13T07:08:08.733Z,1.20
2023-04-13T07:13:22.442Z,1.17
2023-04-13T07:15:52.084Z,1.20
2023-04-13T07:18:24.835Z,1.23
2023-04-13T07:21:02.950Z,1.10
2023-04-13T07:23:42.545Z,1.48
2023-04-13T07:26:15.570Z,1.17
2023-04-13T07:32:31.664Z,1.10
2023-04-13T07:35:02.548Z,1.20
2023-04-13T07:37:37.373Z,1.10
2023-04-13T07:40:16.299Z,1.17
2023-04-13T07:42:59.293Z,1.20
2023-04-13T07:45:35.181Z,1.10
2023-04-13T07:48:13.857Z,1.52
2023-04-13T07:50:44.692Z,1.30
2023-04-13T07:53:19.366Z,1.45
2023-04-13T07:56:45.352Z,1.08
2023-04-13T07:59:25.164Z,1.40
2023-04-13T08:02:01.660Z,1.20
2023-04-13T08:04:37.383Z,1.23
2023-04-13T08:07:11.655Z,1.10
2023-04-13T08:09:43.603Z,1.20
2023-04-13T08:12:12.890Z,1.17
2023-04-13T08:14:48.547Z,1.40
2023-04-13T08:17:21.078Z,1.10
2023-04-13T08:19:50.113Z,1.48
2023-04-13T08:22:23.021Z,1.30
2023-04-13T08:24:54.690Z,1.35
2023-04-13T08:27:23.805Z,1.42
2023-04-13T08:30:05.375Z,1.30
2023-04-13T08:32:48.056Z,1.50
2023-04-13T08:35:22.681Z,1.30
2023-04-13T08:37:52.701Z,1.60
2023-04-13T08:40:27.432Z,1.45
2023-04-13T08:43:02.852Z,1.30
2023-04-13T08:45:35.262Z,1.77
2023-04-13T08:48:05.695Z,1.45
2023-04-13T08:50:40.032Z,1.65
2023-04-13T08:53:11.119Z,1.25
2023-04-13T08:55:45.317Z,1.50
2023-04-13T08:58:27.339Z,1.48
2023-04-13T09:00:59.116Z,1.63
2023-04-13T09:03:34.203Z,1.52
2023-04-13T09:06:13.243Z,1.50
2023-04-13T09:08:59.213Z,1.50
2023-04-13T09:11:54.702Z,1.70
2023-04-13T09:14:27.832Z,1.70
2023-04-13T09:17:04.650Z,1.73
2023-04-13T09:20:04.796Z,1.40
2023-04-13T09:22:45.589Z,1.60
2023-04-13T09:25:35.548Z,1.73
2023-04-13T09:28:08.583Z,1.60
2023-04-13T09:30:37.287Z,1.52
2023-04-13T09:33:08.720Z,1.65
2023-04-13T09:35:48.055Z,2.00
2023-04-13T09:38:44.577Z,1.75
2023-04-13T09:41:31.233Z,1.70
2023-04-13T09:44:04.732Z,1.75
2023-04-13T09:46:34.317Z,1.80
2023-04-13T09:49:09.580Z,1.63
2023-04-13T09:51:39.281Z,1.60
2023-04-13T09:54:15.525Z,1.60
2023-04-13T09:56:45.583Z,1.58
2023-04-13T09:59:16.057Z,1.80
2023-04-13T10:01:55.919Z,1.98
2023-04-13T10:04:27.328Z,1.50
2023-04-13T10:07:02.052Z,1.75
2023-04-13T10:09:42.386Z,1.80
2023-04-13T10:15:00.619Z,1.92
2023-04-13T10:17:56.353Z,1.90
2023-04-13T10:20:31.459Z,2.20
2023-04-13T10:23:01.845Z,1.80
2023-04-13T10:25:36.760Z,1.80
2023-04-13T10:28:08.601Z,1.92
2023-04-13T10:30:51.508Z,1.80
2023-04-13T10:33:24.000Z,1.90
2023-04-13T10:35:59.391Z,2.05
2023-04-13T10:38:51.350Z,2.10
2023-04-13T10:41:29.003Z,2.03
2023-04-13T10:44:11.134Z,2.00
2023-04-13T10:46:42.627Z,1.80
2023-04-13T10:49:19.185Z,2.22
2023-04-13T10:52:00.551Z,2.15
2023-04-13T10:54:39.382Z,1.80
2023-04-13T10:57:15.632Z,2.13
2023-04-13T10:59:59.178Z,1.88
2023-04-13T11:02:40.965Z,2.00
2023-04-13T11:05:25.924Z,1.88
2023-04-13T11:07:59.149Z,2.00
2023-04-13T11:10:30.369Z,1.83
2023-04-13T11:13:03.207Z,1.60
2023-04-13T11:15:54.043Z,2.13
2023-04-13T11:18:30.428Z,1.77
2023-04-13T11:21:08.979Z,1.30
2023-04-13T11:23:41.254Z,1.70
2023-04-13T11:26:11.278Z,1.40
2023-04-13T11:28:46.405Z,1.98
2023-04-13T11:31:17.149Z,1.90
2023-04-13T11:33:52.573Z,1.65
2023-04-13T11:36:26.447Z,1.70
2023-04-13T11:39:11.155Z,1.67
2023-04-13T11:41:56.354Z,1.67
2023-04-13T11:44:35.419Z,1.65
2023-04-13T11:47:29.410Z,1.60
2023-04-13T11:50:00.616Z,1.35
2023-04-13T11:52:32.620Z,1.85
2023-04-13T11:55:22.322Z,1.50
2023-04-13T11:58:10.917Z,1.70
2023-04-13T12:00:51.803Z,1.70
2023-04-13T12:03:38.344Z,1.60
2023-04-13T12:06:13.144Z,1.80
2023-04-13T12:08:43.171Z,1.67
2023-04-13T12:11:40.411Z,1.52
2023-04-13T12:14:14.460Z,1.73
2023-04-13T12:19:30.459Z,1.75
2023-04-13T12:22:07.077Z,1.77
2023-04-13T12:24:42.964Z,1.88
2023-04-13T12:27:20.484Z,1.88
2023-04-13T12:29:50.975Z,1.33
2023-04-13T12:32:29.786Z,1.70
2023-04-13T12:35:03.961Z,1.70
2023-04-13T12:37:35.398Z,1.77
2023-04-13T12:40:10.448Z,1.50
2023-04-13T12:42:42.171Z,2.00
2023-04-13T12:45:14.180Z,1.60
2023-04-13T12:47:43.852Z,1.77
2023-04-13T12:50:18.661Z,1.77
2023-04-13T12:52:50.421Z,1.80
2023-04-13T12:55:22.413Z,1.77
2023-04-13T12:58:05.800Z,1.85
2023-04-13T13:00:43.075Z,1.80
2023-04-13T13:03:21.767Z,1.88
2023-04-13T13:05:52.151Z,1.60
2023-04-13T13:08:24.478Z,1.98
2023-04-13T13:10:55.152Z,2.15
2023-04-13T13:13:31.540Z,1.67
2023-04-13T13:16:03.710Z,1.50
2023-04-13T13:18:49.814Z,1.50
2023-04-13T13:21:25.846Z,1.48
2023-04-13T13:24:00.763Z,1.50
2023-04-13T13:26:44.929Z,1.95
2023-04-13T13:29:26.186Z,1.45
2023-04-13T13:31:57.414Z,1.42
2023-04-13T13:34:38.234Z,1.42
2023-04-13T13:37:13.995Z,1.40
2023-04-13T13:39:44.119Z,1.48
2023-04-13T13:42:15.717Z,1.80
2023-04-13T13:47:30.238Z,1.58
2023-04-13T13:50:01.940Z,1.38
2023-04-13T13:52:55.340Z,1.30
2023-04-13T13:55:47.174Z,1.35
2023-04-13T13:58:20.868Z,1.48
2023-04-13T14:00:55.583Z,1.60
2023-04-13T14:03:29.023Z,1.20
2023-04-13T14:06:00.456Z,1.45
2023-04-13T14:08:40.876Z,1.40
2023-04-13T14:11:14.982Z,1.40
2023-04-13T14:13:50.629Z,1.50
2023-04-13T14:16:23.848Z,1.40
2023-04-13T14:18:55.879Z,1.48
2023-04-13T14:21:27.998Z,1.30
2023-04-13T14:23:59.140Z,1.60
2023-04-13T14:26:31.967Z,1.42
2023-04-13T14:29:04.502Z,1.20
2023-04-13T14:31:43.583Z,1.55
2023-04-13T14:34:14.423Z,1.20
2023-04-13T14:36:45.641Z,1.30
2023-04-13T14:39:18.323Z,1.50
2023-04-13T14:41:49.490Z,1.48
2023-04-13T14:44:21.796Z,1.40
2023-04-13T14:46:55.198Z,1.10
2023-04-13T14:49:26.116Z,1.75
2023-04-13T14:51:56.668Z,1.00
2023-04-13T14:54:33.448Z,1.17
2023-04-13T14:57:06.152Z,1.27
2023-04-13T14:59:35.538Z,1.15
2023-04-13T15:02:09.012Z,1.50
2023-04-13T15:07:13.406Z,1.25
2023-04-13T15:09:45.124Z,1.27
2023-04-13T15:12:19.875Z,1.23
2023-04-13T15:14:51.351Z,1.40
2023-04-13T15:17:23.455Z,1.50
2023-04-13T15:19:56.472Z,1.52
2023-04-13T15:22:30.862Z,1.48
2023-04-13T15:27:32.747Z,1.30
2023-04-13T15:30:06.385Z,1.20
2023-04-13T15:32:41.421Z,1.33
2023-04-13T15:35:13.815Z,1.35
2023-04-13T15:37:45.658Z,1.65
2023-04-13T15:40:20.158Z,1.20
2023-04-13T15:42:50.094Z,1.30
2023-04-13T15:45:19.398Z,1.30
2023-04-13T15:47:51.980Z,1.40
2023-04-13T15:50:23.501Z,1.70
2023-04-13T15:52:59.028Z,1.55
2023-04-13T15:55:31.227Z,1.40
2023-04-13T15:58:04.236Z,1.33
2023-04-13T16:00:42.510Z,1.50
2023-04-13T16:03:15.406Z,1.30
2023-04-13T16:05:45.256Z,1.45
2023-04-13T16:08:15.883Z,1.50
2023-04-13T16:10:47.588Z,1.25
2023-04-13T16:13:20.893Z,1.40
2023-04-13T16:18:36.271Z,1.40
2023-04-13T16:21:13.156Z,1.40
2023-04-13T16:23:53.301Z,1.25
2023-04-13T16:26:26.691Z,1.40
2023-04-13T16:31:37.556Z,1.40
2023-04-13T16:36:51.572Z,1.50
2023-04-13T16:39:26.676Z,1.40
2023-04-13T16:42:03.217Z,1.30
2023-04-13T16:44:41.282Z,1.20
2023-04-13T16:47:13.846Z,1.20
2023-04-13T16:49:46.317Z,1.30
2023-04-13T16:52:19.891Z,1.13
2023-04-13T16:55:03.030Z,1.10
2023-04-13T16:57:36.976Z,1.00
2023-04-13T17:00:13.798Z,1.00
2023-04-13T17:02:51.779Z,1.02
2023-04-13T17:05:32.425Z,1.05
2023-04-13T17:08:11.606Z,1.40
2023-04-13T17:10:45.100Z,0.90
2023-04-13T17:13:17.440Z,1.05
2023-04-13T17:15:52.309Z,1.10
2023-04-13T17:18:28.155Z,0.85
2023-04-13T17:21:03.495Z,0.85
2023-04-13T17:23:37.315Z,1.08
2023-04-13T17:26:16.600Z,1.20
2023-04-13T17:28:48.580Z,1.00
2023-04-13T17:31:24.153Z,0.98
2023-04-13T17:33:56.892Z,1.00
2023-04-13T17:36:32.610Z,0.90
2023-04-13T17:39:09.089Z,0.90
2023-04-13T17:41:42.134Z,1.00
2023-04-13T17:44:15.348Z,0.80
2023-04-13T17:46:47.392Z,0.80
2023-04-13T17:49:18.857Z,0.90
2023-04-13T17:51:53.902Z,0.80
2023-04-13T17:54:26.481Z,0.80
2023-04-13T17:57:01.475Z,0.98
2023-04-13T17:59:31.454Z,1.00
2023-04-13T18:02:01.749Z,0.80
2023-04-13T18:04:33.237Z,0.80
2023-04-13T18:07:04.630Z,0.90
2023-04-13T18:09:33.971Z,1.00
2023-04-13T18:12:06.172Z,0.90
2023-04-13T18:14:40.163Z,0.90
2023-04-13T18:17:11.585Z,1.00
2023-04-13T18:19:43.031Z,1.00
2023-04-13T18:22:17.904Z,1.10
2023-04-13T18:24:48.335Z,1.00
2023-04-13T18:27:18.012Z,1.15
2023-04-13T18:29:48.875Z,1.05
2023-04-13T18:32:19.269Z,1.17
2023-04-13T18:34:51.088Z,1.15
2023-04-13T18:37:24.420Z,1.10
2023-04-13T18:39:58.800Z,1.20
2023-04-13T18:42:39.285Z,1.20
2023-04-13T18:45:10.264Z,1.00
2023-04-13T18:47:41.759Z,1.27
2023-04-13T18:50:16.843Z,1.30
2023-04-13T18:52:52.633Z,1.00
2023-04-13T18:55:27.361Z,1.10
2023-04-13T19:00:33.517Z,1.30
2023-04-13T19:03:04.126Z,1.27
2023-04-13T19:05:40.736Z,1.10
2023-04-13T19:08:13.906Z,1.10
2023-04-13T19:10:49.333Z,1.17
2023-04-13T19:13:18.496Z,1.20
2023-04-13T19:15:49.466Z,1.30
2023-04-13T19:18:24.333Z,1.23
2023-04-13T19:20:56.223Z,1.10
2023-04-13T19:23:28.442Z,1.20
2023-04-13T19:25:59.609Z,1.30
2023-04-13T19:28:34.209Z,1.10
2023-04-13T19:33:35.631Z,1.30
2023-04-13T19:36:09.642Z,1.30
2023-04-13T19:41:12.974Z,1.20
2023-04-13T19:43:44.518Z,1.20
2023-04-13T19:46:19.650Z,1.58
2023-04-13T19:48:50.464Z,1.58
2023-04-13T19:51:20.586Z,1.52
2023-04-13T19:53:53.710Z,1.50
2023-04-13T19:56:26.933Z,1.58
2023-04-13T19:58:56.925Z,1.80
2023-04-13T20:01:27.222Z,1.73
2023-04-13T20:03:56.724Z,1.60
2023-04-13T20:06:27.399Z,1.80
2023-04-13T20:09:12.129Z,1.70
2023-04-13T20:11:44.869Z,1.70
2023-04-13T20:14:18.544Z,1.95
2023-04-13T20:16:49.154Z,1.80
2023-04-13T20:19:20.196Z,1.92
2023-04-13T20:21:51.755Z,1.52
2023-04-13T20:24:22.484Z,1.77
2023-04-13T20:26:52.078Z,1.60
2023-04-13T20:29:23.807Z,1.60
2023-04-13T20:31:54.366Z,1.73
2023-04-13T20:34:27.795Z,2.15
2023-04-13T20:36:59.966Z,1.90
2023-04-13T20:39:31.715Z,2.00
2023-04-13T20:42:06.506Z,1.95
2023-04-13T20:44:44.829Z,1.98
2023-04-13T20:47:14.585Z,1.90
2023-04-13T20:49:48.989Z,2.22
2023-04-13T20:52:19.041Z,2.20
2023-04-13T20:54:51.174Z,1.80
2023-04-13T20:57:22.088Z,2.10
2023-04-13T20:59:54.732Z,2.20
2023-04-13T21:02:23.897Z,2.28
2023-04-13T21:04:53.953Z,2.60
2023-04-13T21:07:24.739Z,2.50
2023-04-13T21:09:57.140Z,2.30
2023-04-13T21:12:28.717Z,2.40
2023-04-13T21:14:59.029Z,2.20
2023-04-13T21:17:29.005Z,2.63
2023-04-13T21:19:58.617Z,3.05
2023-04-13T21:22:27.484Z,3.30
2023-04-13T21:24:57.483Z,3.08
2023-04-13T21:27:26.134Z,2.55
2023-04-13T21:29:54.656Z,2.03
2023-04-13T21:32:23.852Z,2.30
2023-04-13T21:34:54.822Z,2.13
2023-04-13T21:37:23.540Z,1.83
2023-04-13T21:39:52.297Z,1.70
2023-04-13T21:42:22.775Z,2.00
2023-04-13T21:44:51.432Z,1.73
2023-04-13T21:47:20.103Z,1.70
2023-04-13T21:49:48.884Z,1.95
2023-04-13T21:52:17.517Z,1.70
2023-04-13T21:54:46.168Z,1.70
2023-04-13T21:57:14.760Z,1.63
2023-04-13T21:59:44.788Z,1.70
2023-04-13T22:02:13.530Z,1.90
2023-04-13T22:04:42.471Z,1.58
2023-04-13T22:07:11.192Z,1.80
2023-04-13T22:09:39.841Z,1.65
2023-04-13T22:12:10.420Z,1.60
2023-04-13T22:14:38.976Z,1.52
2023-04-13T22:17:08.982Z,1.73
2023-04-13T22:19:37.510Z,1.70
2023-04-13T22:22:06.069Z,1.63
2023-04-13T22:24:34.611Z,1.50
2023-04-13T22:27:03.488Z,1.67
2023-04-13T22:29:32.527Z,1.45
2023-04-13T22:32:04.074Z,1.30
2023-04-13T22:34:34.734Z,1.50
2023-04-13T22:37:04.964Z,1.30
2023-04-13T22:39:33.751Z,1.27
2023-04-13T22:42:02.431Z,1.20
2023-04-13T22:44:34.194Z,1.40
2023-04-13T22:47:03.458Z,1.42
2023-04-13T22:49:33.675Z,1.30
2023-04-13T22:52:02.407Z,1.48
2023-04-13T22:54:31.194Z,1.27
2023-04-13T22:57:05.071Z,1.23
2023-04-13T22:59:33.946Z,1.20
2023-04-13T23:02:03.962Z,1.50
2023-04-13T23:04:34.191Z,1.40
2023-04-13T23:07:03.001Z,1.25
2023-04-13T23:09:32.202Z,1.60
2023-04-13T23:12:01.561Z,1.50
2023-04-13T23:14:30.165Z,1.38
2023-04-13T23:16:59.464Z,1.30
2023-04-13T23:19:28.066Z,1.40
2023-04-13T23:21:58.062Z,1.38
2023-04-13T23:24:28.598Z,1.50
2023-04-13T23:26:58.120Z,1.48
2023-04-13T23:29:26.778Z,1.58
2023-04-13T23:31:57.137Z,1.30
2023-04-13T23:34:25.717Z,1.60
2023-04-13T23:36:54.386Z,1.48
2023-04-13T23:39:24.318Z,1.80
2023-04-13T23:41:52.964Z,1.50
2023-04-13T23:44:21.491Z,1.60
2023-04-13T23:46:50.926Z,1.90
2023-04-13T23:49:19.635Z,1.70
2023-04-13T23:51:48.468Z,1.50
2023-04-13T23:54:17.149Z,1.52
2023-04-13T23:56:47.284Z,1.50
2023-04-13T23:59:16.065Z,1.40
